Time;durP1;ratioP1;P1;durP2;ratioP2;P2;SDS_P1;SDS_P2;PMS_P1;PMS_P2;Temp;Humidity;BMP_temperature;BMP_pressure;BME280_temperature;BME280_humidity;BME280_pressure;Samples;Min_cycle;Max_cycle;Signal;HPM_P1;HPM_P2
2024/01/04 00:02:30;;;;;;;3.37;1.30;;;15.20;99.90;;;;;;5034578;28;20207;-67
2024/01/04 00:04:57;;;;;;;2.57;1.10;;;15.20;99.90;;;;;;5036154;28;20174;-67
2024/01/04 00:07:26;;;;;;;2.13;1.10;;;15.20;99.90;;;;;;5035337;28;20261;-67
2024/01/04 00:09:51;;;;;;;1.67;1.00;;;15.30;99.90;;;;;;5035329;28;20187;-67
2024/01/04 00:12:22;;;;;;;2.87;1.10;;;15.30;99.90;;;;;;5035259;28;20205;-67
2024/01/04 00:14:47;;;;;;;1.90;1.00;;;15.30;99.90;;;;;;5033164;28;20179;-66
2024/01/04 00:17:13;;;;;;;2.43;1.00;;;15.30;99.90;;;;;;5034459;28;20187;-66
2024/01/04 00:19:42;;;;;;;1.93;1.00;;;15.30;99.90;;;;;;5033728;28;20222;-67
2024/01/04 00:22:08;;;;;;;2.00;1.10;;;15.30;99.90;;;;;;5034257;28;20187;-67
2024/01/04 00:24:34;;;;;;;1.17;1.00;;;15.30;99.90;;;;;;5034688;28;20188;-67
2024/01/04 00:27:00;;;;;;;3.10;1.00;;;15.30;99.90;;;;;;5034321;28;20204;-66
2024/01/04 00:29:28;;;;;;;1.20;1.10;;;15.30;99.90;;;;;;5034143;28;20528;-66
2024/01/04 00:31:56;;;;;;;1.40;1.10;;;15.30;99.90;;;;;;5032571;28;20259;-66
2024/01/04 00:34:21;;;;;;;2.30;1.10;;;15.30;99.90;;;;;;5031835;28;20180;-66
2024/01/04 00:36:49;;;;;;;1.53;1.00;;;15.30;99.90;;;;;;5032391;28;20188;-66
2024/01/04 00:39:18;;;;;;;1.20;1.00;;;15.30;99.90;;;;;;5033023;28;20265;-67
2024/01/04 00:41:47;;;;;;;1.30;0.97;;;15.30;99.90;;;;;;5034219;28;20177;-67
2024/01/04 00:44:12;;;;;;;1.47;1.10;;;15.30;99.90;;;;;;5033177;28;20212;-67
2024/01/04 00:46:48;;;;;;;1.87;1.00;;;15.30;99.90;;;;;;5034460;28;20247;-67
2024/01/04 00:49:13;;;;;;;1.23;1.00;;;15.30;99.90;;;;;;5034162;28;20184;-67
2024/01/04 00:51:42;;;;;;;1.33;1.10;;;15.30;99.90;;;;;;5034546;28;20173;-67
2024/01/04 00:54:08;;;;;;;1.70;1.00;;;15.30;99.90;;;;;;5034135;28;20181;-67
2024/01/04 00:56:37;;;;;;;0.90;0.80;;;15.30;99.90;;;;;;5033744;28;20192;-67
2024/01/04 00:59:03;;;;;;;1.30;0.93;;;15.30;99.90;;;;;;5033855;28;20177;-66
2024/01/04 01:01:33;;;;;;;1.10;1.00;;;15.30;99.90;;;;;;5033891;28;20179;-67
2024/01/04 01:04:02;;;;;;;1.47;1.07;;;15.30;99.90;;;;;;5035222;28;20181;-68
2024/01/04 01:06:27;;;;;;;1.60;1.10;;;15.30;99.90;;;;;;5037379;28;20494;-67
2024/01/04 01:08:53;;;;;;;1.93;1.03;;;15.30;99.90;;;;;;5037863;28;20209;-67
2024/01/04 01:11:19;;;;;;;1.13;0.90;;;15.30;99.90;;;;;;5038148;28;20185;-67
2024/01/04 01:13:45;;;;;;;1.33;1.10;;;15.30;99.90;;;;;;5039225;28;20237;-66
2024/01/04 01:16:11;;;;;;;1.23;1.10;;;15.30;99.90;;;;;;5038547;28;20180;-67
2024/01/04 01:18:40;;;;;;;1.03;0.90;;;15.30;99.90;;;;;;5039213;28;20494;-67
2024/01/04 01:21:06;;;;;;;1.63;1.07;;;15.30;99.90;;;;;;5037760;28;20202;-67
2024/01/04 01:23:32;;;;;;;1.47;1.30;;;15.30;99.90;;;;;;5036568;28;20173;-67
2024/01/04 01:25:58;;;;;;;1.73;1.10;;;15.30;99.90;;;;;;5038220;28;20180;-66
2024/01/04 01:28:23;;;;;;;2.40;1.20;;;15.30;99.90;;;;;;5038676;28;20340;-67
2024/01/04 01:30:55;;;;;;;1.10;0.83;;;15.30;99.90;;;;;;5038424;28;20171;-67
2024/01/04 01:33:20;;;;;;;1.60;0.97;;;15.30;99.90;;;;;;5038042;28;20226;-67
2024/01/04 01:35:49;;;;;;;1.33;1.00;;;15.30;99.90;;;;;;5038133;28;20178;-65
2024/01/04 01:38:17;;;;;;;1.00;0.90;;;15.30;99.90;;;;;;5037379;28;20189;-65
2024/01/04 01:40:45;;;;;;;1.30;1.10;;;15.30;99.90;;;;;;5038490;28;20183;-65
2024/01/04 01:43:14;;;;;;;1.43;0.93;;;15.30;99.90;;;;;;5038088;28;20225;-65
2024/01/04 01:45:44;;;;;;;1.33;1.10;;;15.30;99.90;;;;;;5038388;28;20202;-65
2024/01/04 01:48:13;;;;;;;1.13;0.93;;;15.30;99.90;;;;;;5037547;28;20213;-65
2024/01/04 01:50:47;;;;;;;2.30;1.03;;;15.30;99.90;;;;;;5036935;28;20187;-65
2024/01/04 01:53:12;;;;;;;1.07;0.90;;;15.30;99.90;;;;;;5037394;28;20175;-65
2024/01/04 01:55:38;;;;;;;1.17;1.00;;;15.30;99.90;;;;;;5037812;28;20234;-65
2024/01/04 01:58:04;;;;;;;1.47;1.03;;;15.30;99.90;;;;;;5036707;28;20246;-66
2024/01/04 02:00:45;;;;;;;1.30;0.90;;;15.30;99.90;;;;;;5037567;28;20536;-66
2024/01/04 02:03:12;;;;;;;1.23;1.10;;;15.30;99.90;;;;;;5037173;28;20177;-66
2024/01/04 02:05:38;;;;;;;1.57;1.00;;;15.40;99.90;;;;;;5037077;28;20205;-66
2024/01/04 02:08:04;;;;;;;0.90;0.80;;;15.40;99.90;;;;;;5036753;28;20517;-66
2024/01/04 02:10:33;;;;;;;1.50;0.90;;;15.40;99.90;;;;;;5037679;28;20168;-66
2024/01/04 02:12:59;;;;;;;1.07;0.90;;;15.40;99.90;;;;;;5037854;28;20180;-66
2024/01/04 02:15:24;;;;;;;1.17;0.87;;;15.40;99.90;;;;;;5037240;28;20176;-66
2024/01/04 02:17:50;;;;;;;0.87;0.83;;;15.40;99.90;;;;;;5036054;28;20291;-66
2024/01/04 02:20:16;;;;;;;1.37;1.00;;;15.40;99.90;;;;;;5032160;28;20238;-66
2024/01/04 02:22:43;;;;;;;1.80;0.97;;;15.40;99.90;;;;;;5017257;28;20180;-66
2024/01/04 02:25:09;;;;;;;1.10;1.00;;;15.40;99.90;;;;;;5018112;28;20173;-66
2024/01/04 02:27:34;;;;;;;1.30;1.10;;;15.30;99.90;;;;;;5018272;28;20724;-66
2024/01/04 02:30:22;;;;;;;1.10;0.90;;;15.30;99.90;;;;;;5017739;28;20178;-66
2024/01/04 02:32:48;;;;;;;1.10;0.90;;;15.30;99.90;;;;;;5017813;28;20216;-66
2024/01/04 02:35:17;;;;;;;1.13;0.90;;;15.30;99.90;;;;;;5017844;28;20854;-66
2024/01/04 02:37:43;;;;;;;1.70;0.90;;;15.30;99.90;;;;;;5017197;28;20280;-66
2024/01/04 02:40:09;;;;;;;1.03;0.93;;;15.30;99.90;;;;;;5018659;28;20257;-66
2024/01/04 02:42:35;;;;;;;1.10;0.90;;;15.30;99.90;;;;;;5018545;28;20314;-66
2024/01/04 02:45:00;;;;;;;1.13;0.80;;;15.30;99.90;;;;;;5018295;28;20223;-66
2024/01/04 02:47:34;;;;;;;1.00;0.90;;;15.30;99.90;;;;;;5016832;28;20211;-66
2024/01/04 02:50:00;;;;;;;1.03;0.80;;;15.30;99.90;;;;;;5017606;28;20215;-66
2024/01/04 02:52:25;;;;;;;0.93;0.80;;;15.30;99.90;;;;;;5016904;28;20181;-66
2024/01/04 02:54:51;;;;;;;1.03;0.93;;;15.30;99.90;;;;;;5017299;28;20177;-66
2024/01/04 02:57:17;;;;;;;1.10;0.80;;;15.30;99.90;;;;;;5017168;28;20177;-66
2024/01/04 02:59:44;;;;;;;1.10;0.80;;;15.30;99.90;;;;;;5017085;28;20176;-66
2024/01/04 03:02:10;;;;;;;2.33;1.00;;;15.30;99.90;;;;;;5017698;28;20168;-66
2024/01/04 03:04:40;;;;;;;1.00;0.80;;;15.30;99.90;;;;;;5016871;28;20177;-66
2024/01/04 03:07:06;;;;;;;0.90;0.90;;;15.30;99.90;;;;;;5016657;28;20275;-66
2024/01/04 03:09:32;;;;;;;0.90;0.90;;;15.30;99.90;;;;;;5018093;28;20268;-67
2024/01/04 03:11:58;;;;;;;1.03;0.90;;;15.30;99.90;;;;;;5013872;28;20190;-66
2024/01/04 03:14:27;;;;;;;0.97;0.97;;;15.20;99.90;;;;;;5015988;28;20170;-66
2024/01/04 03:16:52;;;;;;;0.93;0.87;;;15.30;99.90;;;;;;5016451;28;20178;-66
2024/01/04 03:19:18;;;;;;;1.20;0.90;;;15.20;99.90;;;;;;5016268;28;20179;-66
2024/01/04 03:21:47;;;;;;;1.27;0.90;;;15.30;99.90;;;;;;5016106;28;20199;-67
2024/01/04 03:24:15;;;;;;;1.30;0.90;;;15.20;99.90;;;;;;5015302;28;20227;-66
2024/01/04 03:26:44;;;;;;;0.80;0.80;;;15.20;99.90;;;;;;5016202;28;20208;-66
2024/01/04 03:29:16;;;;;;;1.43;0.90;;;15.20;99.90;;;;;;5015449;28;20269;-66
2024/01/04 03:31:42;;;;;;;1.43;0.87;;;15.20;99.90;;;;;;5016959;28;20187;-66
2024/01/04 03:34:07;;;;;;;1.13;0.80;;;15.30;99.90;;;;;;5016776;28;20196;-66
2024/01/04 03:36:33;;;;;;;1.00;0.90;;;15.30;99.90;;;;;;5016294;28;20180;-66
2024/01/04 03:38:59;;;;;;;1.00;0.90;;;15.30;99.90;;;;;;5016240;28;20176;-66
2024/01/04 03:41:25;;;;;;;1.13;0.80;;;15.30;99.90;;;;;;5016440;28;20172;-66
2024/01/04 03:43:51;;;;;;;1.27;0.80;;;15.30;99.90;;;;;;5016759;28;20691;-66
2024/01/04 03:46:18;;;;;;;0.80;0.80;;;15.30;99.90;;;;;;5016744;28;20754;-66
2024/01/04 03:48:50;;;;;;;1.27;1.00;;;15.30;99.90;;;;;;5015338;28;20263;-66
2024/01/04 03:51:18;;;;;;;1.10;0.90;;;15.30;99.90;;;;;;5015642;28;20198;-66
2024/01/04 03:53:44;;;;;;;1.10;0.90;;;15.30;99.90;;;;;;5016126;28;20212;-67
2024/01/04 03:56:10;;;;;;;0.70;0.70;;;15.30;99.90;;;;;;5015660;28;20176;-66
2024/01/04 03:58:37;;;;;;;1.53;1.00;;;15.30;99.90;;;;;;5015516;28;20505;-66
2024/01/04 04:01:03;;;;;;;1.07;0.70;;;15.30;99.90;;;;;;5015562;28;20204;-66
2024/01/04 04:03:29;;;;;;;0.90;0.80;;;15.30;99.90;;;;;;5015468;28;20221;-66
2024/01/04 04:05:57;;;;;;;0.80;0.80;;;15.30;99.90;;;;;;5015721;28;20201;-66
2024/01/04 04:08:24;;;;;;;0.63;0.63;;;15.30;99.90;;;;;;5016614;28;20200;-66
2024/01/04 04:10:52;;;;;;;1.67;1.00;;;15.30;99.90;;;;;;5015598;28;20216;-66
2024/01/04 04:13:18;;;;;;;1.23;0.97;;;15.30;99.90;;;;;;5015011;28;20184;-66
2024/01/04 04:15:43;;;;;;;0.73;0.73;;;15.20;99.90;;;;;;5014739;28;20181;-66
2024/01/04 04:18:19;;;;;;;0.97;0.87;;;15.20;99.90;;;;;;5015304;28;20173;-66
2024/01/04 04:20:45;;;;;;;0.97;0.87;;;15.20;99.90;;;;;;5015761;28;20279;-66
2024/01/04 04:23:11;;;;;;;0.93;0.80;;;15.20;99.90;;;;;;5016083;28;20258;-66
2024/01/04 04:25:36;;;;;;;0.93;0.90;;;15.20;99.90;;;;;;5015377;28;20180;-66
2024/01/04 04:28:03;;;;;;;0.80;0.80;;;15.20;99.90;;;;;;5015477;28;20244;-66
2024/01/04 04:30:29;;;;;;;1.10;0.90;;;15.10;99.90;;;;;;5014520;28;20216;-66
2024/01/04 04:32:55;;;;;;;1.00;0.90;;;15.10;99.90;;;;;;5014745;28;20291;-66
2024/01/04 04:35:23;;;;;;;1.77;1.00;;;15.10;99.90;;;;;;5014703;28;20503;-66
2024/01/04 04:37:51;;;;;;;1.07;0.87;;;15.10;99.90;;;;;;5014639;28;20184;-66
2024/01/04 04:40:20;;;;;;;1.03;0.80;;;15.10;99.90;;;;;;5017377;28;20250;-66
2024/01/04 04:42:45;;;;;;;1.00;0.80;;;15.10;99.90;;;;;;5021503;28;20596;-67
2024/01/04 04:45:11;;;;;;;0.63;0.63;;;15.30;99.90;;;;;;5021179;28;20187;-66
2024/01/04 04:47:37;;;;;;;0.93;0.70;;;15.40;99.90;;;;;;5021885;28;20197;-66
2024/01/04 04:50:04;;;;;;;2.00;0.83;;;15.50;99.90;;;;;;5021047;28;20497;-66
2024/01/04 04:52:30;;;;;;;0.60;0.60;;;15.70;99.90;;;;;;5018961;28;20169;-66
2024/01/04 04:55:04;;;;;;;0.97;0.87;;;16.00;99.90;;;;;;5020244;28;20758;-66
2024/01/04 04:57:30;;;;;;;0.73;0.73;;;16.20;99.40;;;;;;5021286;28;20587;-66
2024/01/04 04:59:55;;;;;;;1.10;0.90;;;16.20;99.00;;;;;;5019670;28;20195;-67
2024/01/04 05:02:21;;;;;;;0.80;0.77;;;16.20;99.00;;;;;;5021852;28;20183;-67
2024/01/04 05:05:08;;;;;;;0.80;0.80;;;16.20;99.10;;;;;;5021144;28;20835;-66
2024/01/04 05:07:34;;;;;;;0.83;0.70;;;16.10;99.10;;;;;;5021339;28;20209;-66
2024/01/04 05:10:00;;;;;;;0.80;0.80;;;16.10;99.30;;;;;;5020903;28;20204;-66
2024/01/04 05:12:31;;;;;;;0.80;0.80;;;16.00;99.40;;;;;;5020489;28;20183;-66
2024/01/04 05:14:59;;;;;;;0.83;0.60;;;15.90;99.50;;;;;;5020414;28;20482;-66
2024/01/04 05:17:24;;;;;;;1.13;0.87;;;15.90;99.70;;;;;;5019602;28;20701;-66
2024/01/04 05:19:50;;;;;;;0.80;0.70;;;15.80;99.70;;;;;;5019045;28;20171;-66
2024/01/04 05:22:16;;;;;;;1.10;0.70;;;15.80;99.80;;;;;;5020540;28;20173;-66
2024/01/04 05:24:51;;;;;;;0.90;0.80;;;15.80;99.90;;;;;;5020728;28;20183;-66
2024/01/04 05:27:17;;;;;;;0.70;0.70;;;15.70;99.90;;;;;;5021108;28;20204;-67
2024/01/04 05:29:43;;;;;;;2.30;0.90;;;15.70;99.90;;;;;;5019500;28;20183;-67
2024/01/04 05:32:10;;;;;;;0.90;0.77;;;15.60;99.90;;;;;;5019931;28;20469;-67
2024/01/04 05:34:39;;;;;;;0.83;0.77;;;15.60;99.90;;;;;;5020095;28;20747;-66
2024/01/04 05:37:07;;;;;;;1.37;0.80;;;15.60;99.90;;;;;;5020234;28;20791;-66
2024/01/04 05:39:36;;;;;;;1.50;0.90;;;15.60;99.90;;;;;;5020434;28;20283;-66
2024/01/04 05:42:02;;;;;;;0.77;0.77;;;15.50;99.90;;;;;;5019567;28;20674;-66
2024/01/04 05:44:28;;;;;;;0.60;0.60;;;15.50;99.90;;;;;;5019971;28;20235;-66
2024/01/04 05:46:53;;;;;;;1.57;0.70;;;15.50;99.90;;;;;;5020666;28;20231;-66
2024/01/04 05:49:21;;;;;;;1.10;0.60;;;15.40;99.90;;;;;;5019568;28;20495;-66
2024/01/04 05:51:47;;;;;;;0.77;0.77;;;15.40;99.90;;;;;;5018028;28;20790;-67
2024/01/04 05:54:13;;;;;;;1.23;0.63;;;15.40;99.90;;;;;;5018323;28;20264;-66
2024/01/04 05:56:43;;;;;;;0.70;0.70;;;15.30;99.90;;;;;;5017289;28;20267;-66
2024/01/04 05:59:24;;;;;;;1.00;0.67;;;15.30;99.90;;;;;;5017781;28;20179;-66
2024/01/04 06:01:54;;;;;;;1.00;0.90;;;15.30;99.90;;;;;;5016806;28;20172;-66
2024/01/04 06:04:19;;;;;;;1.10;0.73;;;15.30;99.90;;;;;;5016832;28;20176;-66
2024/01/04 06:06:46;;;;;;;0.70;0.70;;;15.40;99.90;;;;;;5015567;28;20202;-66
2024/01/04 06:09:13;;;;;;;0.80;0.80;;;15.40;99.90;;;;;;5013590;28;20176;-67
2024/01/04 06:11:39;;;;;;;1.00;0.90;;;15.50;99.90;;;;;;5014934;28;20173;-67
2024/01/04 06:14:05;;;;;;;1.13;0.80;;;15.50;99.90;;;;;;5016039;28;20182;-66
2024/01/04 06:16:32;;;;;;;1.00;0.90;;;15.60;99.90;;;;;;5015680;28;20212;-66
2024/01/04 06:18:58;;;;;;;0.80;0.70;;;15.60;99.90;;;;;;5016207;28;20185;-66
2024/01/04 06:21:24;;;;;;;0.90;0.70;;;15.70;99.90;;;;;;5016047;28;20172;-66
2024/01/04 06:23:50;;;;;;;0.70;0.70;;;15.70;99.90;;;;;;5017251;28;20170;-66
2024/01/04 06:26:23;;;;;;;0.70;0.70;;;15.70;99.90;;;;;;5016427;28;20806;-66
2024/01/04 06:28:49;;;;;;;1.13;0.70;;;15.70;99.90;;;;;;5016698;28;20207;-66
2024/01/04 06:31:17;;;;;;;0.70;0.70;;;15.70;99.90;;;;;;5016443;28;20197;-66
2024/01/04 06:33:43;;;;;;;0.80;0.70;;;15.70;99.90;;;;;;5016931;28;20205;-66
2024/01/04 06:36:09;;;;;;;0.97;0.80;;;15.70;99.90;;;;;;5016965;28;20404;-66
2024/01/04 06:38:38;;;;;;;1.30;0.80;;;15.70;99.90;;;;;;5015270;28;20181;-66
2024/01/04 06:41:04;;;;;;;0.80;0.80;;;15.60;99.90;;;;;;5015491;28;20271;-66
2024/01/04 06:43:30;;;;;;;0.70;0.70;;;15.60;99.90;;;;;;5017088;28;20265;-66
2024/01/04 06:45:59;;;;;;;1.33;0.90;;;15.60;99.90;;;;;;5016438;28;20178;-66
2024/01/04 06:48:25;;;;;;;0.80;0.80;;;15.60;99.90;;;;;;5023684;28;20694;-67
2024/01/04 06:50:51;;;;;;;0.87;0.80;;;15.50;99.90;;;;;;5014636;28;20172;-66
2024/01/04 06:53:18;;;;;;;0.93;0.70;;;15.50;99.90;;;;;;5015045;28;20223;-67
2024/01/04 06:55:44;;;;;;;1.10;0.83;;;15.50;99.90;;;;;;5016755;28;20241;-67
2024/01/04 06:58:12;;;;;;;1.63;0.83;;;15.40;99.90;;;;;;5015177;28;20178;-67
2024/01/04 07:00:38;;;;;;;1.40;0.90;;;15.40;99.90;;;;;;5016235;28;20230;-67
2024/01/04 07:03:14;;;;;;;1.93;0.90;;;15.40;99.90;;;;;;5014520;28;20272;-67
2024/01/04 07:05:40;;;;;;;0.80;0.80;;;15.30;99.90;;;;;;5015392;28;20202;-67
2024/01/04 07:08:05;;;;;;;1.50;0.80;;;15.30;99.90;;;;;;5013665;28;20516;-66
2024/01/04 07:10:31;;;;;;;2.50;1.00;;;15.30;99.90;;;;;;5016431;28;20481;-66
2024/01/04 07:13:06;;;;;;;2.90;1.00;;;15.30;99.90;;;;;;5015007;28;20169;-66
2024/01/04 07:15:32;;;;;;;0.97;0.80;;;15.30;99.90;;;;;;5015504;28;20235;-66
2024/01/04 07:17:58;;;;;;;3.10;0.80;;;15.30;99.90;;;;;;5014334;28;20672;-67
2024/01/04 07:20:23;;;;;;;2.63;0.90;;;15.30;99.90;;;;;;5016128;28;20181;-66
2024/01/04 07:22:52;;;;;;;1.07;0.97;;;15.30;99.90;;;;;;5014146;28;20180;-66
2024/01/04 07:25:22;;;;;;;1.20;1.00;;;15.30;99.90;;;;;;5014678;28;20173;-66
2024/01/04 07:27:50;;;;;;;2.20;0.90;;;15.40;99.90;;;;;;5014426;28;20786;-66
2024/01/04 07:30:20;;;;;;;2.43;1.03;;;15.40;99.90;;;;;;5013939;28;20200;-66
2024/01/04 07:32:45;;;;;;;1.73;0.90;;;15.50;99.90;;;;;;5028427;28;20188;-66
2024/01/04 07:35:12;;;;;;;1.20;0.90;;;15.50;99.90;;;;;;5030045;28;20227;-66
2024/01/04 07:37:38;;;;;;;1.57;1.00;;;15.50;99.90;;;;;;5031716;28;20201;-66
2024/01/04 07:40:09;;;;;;;2.23;1.00;;;15.60;99.90;;;;;;5030011;28;20173;-66
2024/01/04 07:42:34;;;;;;;4.27;0.90;;;15.60;99.90;;;;;;5030384;28;20179;-66
2024/01/04 07:45:00;;;;;;;1.50;1.10;;;15.60;99.90;;;;;;5030912;28;20239;-66
2024/01/04 07:47:26;;;;;;;1.63;1.00;;;15.60;99.90;;;;;;5031026;28;20209;-66
2024/01/04 07:49:55;;;;;;;1.70;1.00;;;15.60;99.90;;;;;;5032868;28;20222;-66
2024/01/04 07:52:21;;;;;;;4.43;1.10;;;15.50;99.90;;;;;;5032076;28;20166;-66
2024/01/04 07:54:49;;;;;;;2.63;1.17;;;15.60;99.90;;;;;;5031551;28;20566;-66
2024/01/04 07:57:31;;;;;;;4.20;1.40;;;15.50;99.90;;;;;;5032371;28;20180;-66
2024/01/04 08:00:00;;;;;;;2.37;1.10;;;15.50;99.90;;;;;;5032063;28;20173;-66
2024/01/04 08:02:31;;;;;;;1.27;1.00;;;15.50;99.90;;;;;;5032532;28;20181;-66
2024/01/04 08:04:57;;;;;;;2.27;1.07;;;15.50;99.90;;;;;;5032438;28;20169;-66
2024/01/04 08:07:23;;;;;;;3.00;1.10;;;15.50;99.90;;;;;;5032958;28;20204;-66
2024/01/04 08:09:49;;;;;;;2.60;0.90;;;15.40;99.90;;;;;;5030779;28;20169;-66
2024/01/04 08:12:15;;;;;;;1.57;1.10;;;15.40;99.90;;;;;;5031586;28;20168;-66
2024/01/04 08:14:40;;;;;;;2.23;1.13;;;15.40;99.90;;;;;;5030397;28;20173;-66
2024/01/04 08:17:09;;;;;;;1.50;1.00;;;15.40;99.90;;;;;;5030086;28;20177;-66
2024/01/04 08:19:35;;;;;;;2.83;0.90;;;15.40;99.90;;;;;;5028975;28;20212;-66
2024/01/04 08:22:04;;;;;;;1.10;1.00;;;15.40;99.90;;;;;;5028318;28;20311;-66
2024/01/04 08:24:29;;;;;;;5.00;1.20;;;15.40;99.90;;;;;;5030788;28;20177;-66
2024/01/04 08:27:00;;;;;;;2.77;1.10;;;15.40;99.90;;;;;;5030646;28;20216;-66
2024/01/04 08:29:30;;;;;;;1.67;0.90;;;15.40;99.90;;;;;;5030308;28;20234;-66
2024/01/04 08:31:56;;;;;;;2.30;1.00;;;15.40;99.90;;;;;;5030654;28;20203;-66
2024/01/04 08:34:27;;;;;;;3.20;1.20;;;15.40;99.90;;;;;;5030162;28;20169;-66
2024/01/04 08:36:52;;;;;;;1.10;1.00;;;15.40;99.90;;;;;;5032317;28;20173;-66
2024/01/04 08:39:18;;;;;;;3.23;1.10;;;15.50;99.90;;;;;;5030283;28;20184;-66
2024/01/04 08:41:44;;;;;;;1.50;1.00;;;15.50;99.90;;;;;;5033085;28;20179;-66
2024/01/04 08:44:09;;;;;;;1.77;0.93;;;15.60;99.90;;;;;;5032883;28;20256;-66
2024/01/04 08:46:37;;;;;;;2.17;0.90;;;15.60;99.90;;;;;;5031925;28;20284;-66
2024/01/04 08:49:04;;;;;;;1.27;0.83;;;15.70;99.90;;;;;;5031499;28;20183;-66
2024/01/04 08:51:32;;;;;;;1.97;1.30;;;15.70;99.90;;;;;;5032731;28;20165;-66
2024/01/04 08:54:00;;;;;;;2.30;1.33;;;15.70;99.90;;;;;;5031525;28;20169;-66
2024/01/04 08:56:26;;;;;;;2.83;1.13;;;15.80;99.90;;;;;;5031050;28;20271;-66
2024/01/04 08:58:52;;;;;;;1.10;1.00;;;15.80;99.90;;;;;;5030868;28;20169;-66
2024/01/04 09:01:24;;;;;;;1.23;1.00;;;15.80;99.90;;;;;;5029932;28;20271;-66
2024/01/04 09:03:50;;;;;;;1.40;0.93;;;15.80;99.90;;;;;;5029536;28;20223;-66
2024/01/04 09:06:16;;;;;;;1.70;1.00;;;15.80;99.90;;;;;;5030108;28;20181;-66
2024/01/04 09:08:51;;;;;;;2.13;1.30;;;15.80;99.90;;;;;;5031144;28;20207;-66
2024/01/04 09:11:17;;;;;;;1.97;1.00;;;15.70;99.90;;;;;;5031237;28;20204;-66
2024/01/04 09:13:47;;;;;;;1.10;1.00;;;15.70;99.90;;;;;;5032302;28;20242;-66
2024/01/04 09:16:16;;;;;;;3.53;1.07;;;15.70;99.90;;;;;;5029969;28;20181;-66
2024/01/04 09:18:41;;;;;;;1.00;0.90;;;15.70;99.90;;;;;;5026160;28;20188;-67
2024/01/04 09:21:09;;;;;;;1.93;0.90;;;15.60;99.90;;;;;;5028403;28;20177;-66
2024/01/04 09:23:35;;;;;;;1.17;0.97;;;15.60;99.90;;;;;;5026347;28;20175;-66
2024/01/04 09:26:08;;;;;;;1.37;1.00;;;15.60;99.90;;;;;;5028900;28;20488;-66
2024/01/04 09:28:34;;;;;;;1.23;1.03;;;15.60;99.90;;;;;;5029888;28;20204;-66
2024/01/04 09:31:02;;;;;;;3.00;1.10;;;15.60;99.90;;;;;;5030882;28;20251;-66
2024/01/04 09:33:28;;;;;;;1.73;1.20;;;15.60;99.90;;;;;;5029356;28;20213;-66
2024/01/04 09:35:54;;;;;;;0.90;0.70;;;15.50;99.90;;;;;;5020540;28;20176;-66
2024/01/04 09:38:19;;;;;;;2.20;1.00;;;15.60;99.90;;;;;;5037054;28;20165;-66
2024/01/04 09:40:49;;;;;;;1.33;1.00;;;15.50;99.90;;;;;;5029620;28;20689;-66
2024/01/04 09:43:18;;;;;;;1.20;1.10;;;15.50;99.90;;;;;;5028087;28;20620;-66
2024/01/04 09:45:45;;;;;;;1.00;0.90;;;15.50;99.90;;;;;;5031614;28;20177;-66
2024/01/04 09:48:15;;;;;;;1.97;1.10;;;15.50;99.90;;;;;;5027662;28;20283;-66
2024/01/04 09:50:41;;;;;;;1.33;0.90;;;15.50;99.90;;;;;;5030637;28;20530;-66
2024/01/04 09:53:13;;;;;;;1.73;1.00;;;15.50;99.90;;;;;;5028689;28;20169;-66
2024/01/04 09:55:41;;;;;;;1.77;1.00;;;15.50;99.90;;;;;;5026266;28;20169;-66
2024/01/04 09:58:10;;;;;;;1.10;1.00;;;15.50;99.90;;;;;;5026907;28;20258;-66
2024/01/04 10:00:36;;;;;;;1.87;1.10;;;15.50;99.90;;;;;;5025694;28;20624;-66
2024/01/04 10:03:05;;;;;;;1.67;1.10;;;15.60;99.90;;;;;;5024106;28;20231;-66
2024/01/04 10:05:33;;;;;;;1.83;1.00;;;15.60;99.90;;;;;;5026283;28;20431;-66
2024/01/04 10:08:13;;;;;;;2.57;1.00;;;15.60;99.90;;;;;;5027209;28;20358;-66
2024/01/04 10:10:42;;;;;;;1.50;1.13;;;15.70;99.90;;;;;;5026680;28;20620;-66
2024/01/04 10:13:12;;;;;;;1.53;1.00;;;15.70;99.90;;;;;;5025849;28;20276;-66
2024/01/04 10:15:41;;;;;;;1.20;0.93;;;15.80;99.90;;;;;;5028853;28;20483;-66
2024/01/04 10:18:09;;;;;;;1.10;1.00;;;15.80;99.90;;;;;;5027797;28;20199;-66
2024/01/04 10:20:34;;;;;;;1.80;0.90;;;15.80;99.90;;;;;;5028846;28;20264;-66
2024/01/04 10:23:00;;;;;;;1.90;1.07;;;15.80;99.90;;;;;;5028884;28;20532;-66
2024/01/04 10:25:26;;;;;;;2.40;1.00;;;15.80;99.90;;;;;;5031040;28;20730;-66
2024/01/04 10:27:56;;;;;;;1.27;0.87;;;15.80;99.90;;;;;;5028785;28;20221;-64
2024/01/04 10:30:22;;;;;;;1.90;1.27;;;15.80;99.90;;;;;;5028791;28;20178;-66
2024/01/04 10:32:50;;;;;;;2.67;1.10;;;15.80;99.90;;;;;;5030288;28;20188;-66
2024/01/04 10:35:27;;;;;;;2.03;0.90;;;15.80;99.90;;;;;;5029382;28;20169;-66
2024/01/04 10:38:00;;;;;;;1.43;1.10;;;15.80;99.90;;;;;;5024158;28;20223;-66
2024/01/04 10:40:26;;;;;;;1.13;0.90;;;15.80;99.90;;;;;;5030815;28;20572;-66
2024/01/04 10:42:58;;;;;;;1.40;0.90;;;15.80;99.90;;;;;;5028607;28;20267;-66
2024/01/04 10:45:27;;;;;;;0.97;0.97;;;15.80;99.90;;;;;;5027174;28;20173;-66
2024/01/04 10:47:53;;;;;;;4.00;1.10;;;15.70;99.90;;;;;;5027641;28;20635;-66
2024/01/04 10:50:26;;;;;;;1.83;1.00;;;15.70;99.90;;;;;;5029580;28;20165;-66
2024/01/04 10:52:56;;;;;;;2.60;1.03;;;15.70;99.90;;;;;;5028639;28;20272;-67
2024/01/04 10:55:24;;;;;;;2.33;1.00;;;15.70;99.90;;;;;;5027337;28;20165;-66
2024/01/04 10:57:51;;;;;;;2.73;0.90;;;15.60;99.90;;;;;;5025037;28;20433;-66
2024/01/04 11:00:18;;;;;;;1.43;1.00;;;15.60;99.90;;;;;;5023992;28;20365;-66
2024/01/04 11:02:44;;;;;;;2.37;1.03;;;15.60;99.90;;;;;;5008743;28;20456;-65
2024/01/04 11:05:11;;;;;;;1.10;0.90;;;15.60;99.90;;;;;;5026958;28;20373;-66
2024/01/04 11:07:40;;;;;;;1.77;1.10;;;15.60;99.90;;;;;;5026761;28;20192;-66
2024/01/04 11:10:09;;;;;;;1.50;1.00;;;15.60;99.90;;;;;;5025506;28;20208;-67
2024/01/04 11:12:40;;;;;;;1.73;1.00;;;15.60;99.90;;;;;;5025222;28;20626;-67
2024/01/04 11:15:12;;;;;;;1.13;1.00;;;15.60;99.90;;;;;;5020370;28;20169;-67
2024/01/04 11:18:01;;;;;;;1.33;1.00;;;15.60;99.90;;;;;;5025405;28;20167;-68
2024/01/04 11:20:42;;;;;;;1.17;1.07;;;15.60;99.90;;;;;;5024281;28;20181;-67
2024/01/04 11:23:27;;;;;;;1.43;1.10;;;15.60;99.90;;;;;;5025068;28;20165;-67
2024/01/04 11:26:11;;;;;;;2.57;0.93;;;15.60;99.90;;;;;;5027073;28;20267;-67
2024/01/04 11:28:38;;;;;;;1.00;0.90;;;15.60;99.90;;;;;;5020208;28;20266;-67
2024/01/04 11:31:04;;;;;;;1.33;0.93;;;15.60;99.90;;;;;;5026873;28;20165;-67
2024/01/04 11:33:32;;;;;;;3.20;1.00;;;15.70;99.90;;;;;;5027344;28;20212;-67
2024/01/04 11:35:58;;;;;;;1.23;0.87;;;15.70;99.90;;;;;;5028601;28;20589;-66
2024/01/04 11:38:24;;;;;;;2.40;1.00;;;15.70;99.90;;;;;;5007482;28;20240;-67
2024/01/04 11:40:51;;;;;;;1.50;0.97;;;15.80;99.90;;;;;;5027208;28;20171;-67
2024/01/04 11:43:17;;;;;;;1.07;0.77;;;15.80;99.90;;;;;;5027794;28;20490;-67
2024/01/04 11:45:44;;;;;;;2.00;1.00;;;15.80;99.90;;;;;;5028121;28;20227;-67
2024/01/04 11:48:11;;;;;;;3.23;1.00;;;15.90;99.90;;;;;;5024709;28;20211;-67
2024/01/04 11:50:47;;;;;;;1.47;1.10;;;15.90;99.90;;;;;;5025023;28;20175;-67
2024/01/04 11:53:14;;;;;;;1.00;0.90;;;15.90;99.90;;;;;;5021107;28;20161;-68
2024/01/04 11:55:41;;;;;;;1.70;1.00;;;15.90;99.90;;;;;;5025991;28;20198;-67
2024/01/04 11:58:14;;;;;;;1.93;1.03;;;15.90;99.90;;;;;;5023115;28;20164;-67
2024/01/04 12:00:52;;;;;;;1.67;1.00;;;15.90;99.90;;;;;;5024363;28;20183;-67
2024/01/04 12:03:22;;;;;;;1.30;0.90;;;15.80;99.90;;;;;;5026239;28;20630;-67
2024/01/04 12:05:51;;;;;;;2.00;1.03;;;15.80;99.90;;;;;;5025160;28;20176;-67
2024/01/04 12:08:30;;;;;;;1.00;0.90;;;15.80;99.90;;;;;;5022751;28;20214;-67
2024/01/04 12:11:03;;;;;;;1.20;1.00;;;15.80;99.90;;;;;;5025511;28;20177;-65
2024/01/04 12:13:32;;;;;;;1.57;0.97;;;15.80;99.90;;;;;;5024942;28;20165;-67
2024/01/04 12:16:03;;;;;;;1.30;1.00;;;15.80;99.90;;;;;;5025998;28;20162;-67
2024/01/04 12:18:33;;;;;;;1.00;0.90;;;15.80;99.90;;;;;;5025269;28;20188;-67
2024/01/04 12:21:03;;;;;;;1.47;1.00;;;15.70;99.90;;;;;;5023625;28;20173;-67
2024/01/04 12:23:30;;;;;;;1.00;0.90;;;15.70;99.90;;;;;;5027133;28;20262;-67
2024/01/04 12:25:59;;;;;;;1.53;1.10;;;15.70;99.90;;;;;;5027419;28;20177;-65
2024/01/04 12:28:27;;;;;;;1.80;1.10;;;15.60;99.90;;;;;;5036696;28;20196;-67
2024/01/04 12:30:55;;;;;;;1.60;0.97;;;15.70;99.90;;;;;;5028004;28;20517;-66
2024/01/04 12:33:30;;;;;;;1.20;0.90;;;15.60;99.90;;;;;;5028270;28;20312;-65
2024/01/04 12:36:00;;;;;;;1.20;1.03;;;15.60;99.90;;;;;;5027139;28;20172;-66
2024/01/04 12:38:26;;;;;;;1.33;1.00;;;15.60;99.90;;;;;;5023295;28;20172;-66
2024/01/04 12:40:52;;;;;;;1.40;1.20;;;15.60;99.90;;;;;;5024459;28;20189;-66
2024/01/04 12:43:20;;;;;;;2.27;1.10;;;15.60;99.90;;;;;;5021246;28;20199;-65
2024/01/04 12:45:47;;;;;;;1.63;1.10;;;15.60;99.90;;;;;;5023461;28;20444;-66
2024/01/04 12:48:32;;;;;;;1.57;1.00;;;15.60;99.90;;;;;;5022287;28;20795;-66
2024/01/04 12:51:08;;;;;;;1.23;1.03;;;15.60;99.90;;;;;;5022600;28;20172;-66
2024/01/04 12:53:37;;;;;;;1.13;1.03;;;15.60;99.90;;;;;;5026128;28;20253;-69